Friesach, Austria
Current Conditions -  °F | °C
As of 6:50 PM on Monday 22 Dec 2014 (Local Time) from LOWK Reporting Station
Clear Clear  
Wind Chill: 32°   Ceiling: Unl
Heat Index: 32°   Visibility: 6mi
Dew Point: 28°   Wind: 3mph
Humidity: 87%   Direction: 300°WNW
Pressure: 30.27"   Gusts: NA
Location:  46.95°N, 14.4°E
Report Text: LOWK 221650Z 30003KT 230V350 CAVOK M00/M02 Q1025 NOSIG
Loading
Personal Weather Stations






























Interactive Weather Map New forecast layout! Learn more

10-Day Weather Forecast

Advertisements
Track Severe Weather on mobile